Westfield Center, Ohio
Current Conditions -  °F | °C
As of 8:56 PM on Friday 28 Nov 2014 (Local Time) from KBJJ Reporting Station
Overcast Overcast  
Wind Chill: 17°   Ceiling: 9000
Heat Index: 26°   Visibility: 10mi
Dew Point: 20°   Wind: 9mph
Humidity: 78%   Direction: 170°S
Pressure: 30.16"   Gusts: NA
Location:  41.03°N, 81.93°W
Report Text: KBJJ 290156Z AUTO 17008KT 10SM FEW070 OVC090 M03/M07 A3016 RMK AO2 SLP230 T10331067 TSNO
Loading
Personal Weather Stations






























Interactive Weather Map New forecast layout! Learn more

10-Day Weather Forecast

Advertisements
Track Severe Weather on mobile